Time,TemperatureF,DewpointF,PressureIn,WindDirection,WindDirectionDegrees,WindSpeedMPH,WindSpeedGustMPH,Humidity,HourlyPrecipIn,Conditions,Clouds,dailyrainin,SoftwareType,DateUTC
2013-02-03 00:05:00,20.1,19.6,29.78,WSW,247,2.7,-999.0,98,-99.99,,,0.00,Acu-Link.com,2013-02-03 05:05:00,
2013-02-03 00:20:00,20.1,19.6,29.78,West,270,4.7,-999.0,98,-99.99,,,0.00,Acu-Link.com,2013-02-03 05:20:00,
2013-02-03 00:35:00,20.1,19.9,29.77,West,270,2.7,-999.0,99,-99.99,,,0.00,Acu-Link.com,2013-02-03 05:35:00,
2013-02-03 00:50:00,20.1,19.9,29.77,West,270,3.2,-999.0,99,-99.99,,,0.00,Acu-Link.com,2013-02-03 05:50:00,
2013-02-03 01:05:00,20.1,19.9,29.77,West,270,4.7,-999.0,99,-99.99,,,0.00,Acu-Link.com,2013-02-03 06:05:00,
2013-02-03 01:21:00,20.1,19.9,29.76,WNW,292,2.7,-999.0,99,-99.99,,,0.00,Acu-Link.com,2013-02-03 06:21:00,
2013-02-03 01:36:00,20.1,19.9,29.76,West,270,2.7,-999.0,99,-99.99,,,0.00,Acu-Link.com,2013-02-03 06:36:00,
2013-02-03 01:51:00,20.1,19.9,29.75,West,270,3.7,-999.0,99,-99.99,,,0.00,Acu-Link.com,2013-02-03 06:51:00,
2013-02-03 02:06:00,20.1,19.9,29.74,West,270,3.7,-999.0,99,-99.99,,,0.00,Acu-Link.com,2013-02-03 07:06:00,
2013-02-03 02:21:00,20.1,19.9,29.74,West,270,2.7,-999.0,99,-99.99,,,0.00,Acu-Link.com,2013-02-03 07:21:00,
2013-02-03 02:37:00,20.1,19.9,29.74,West,270,4.2,-999.0,99,-99.99,,,0.00,Acu-Link.com,2013-02-03 07:37:00,
2013-02-03 02:52:00,20.1,19.9,29.74,South,180,3.2,-999.0,99,-99.99,,,0.00,Acu-Link.com,2013-02-03 07:52:00,
2013-02-03 03:07:00,20.1,19.9,29.73,WSW,247,3.2,-999.0,99,-99.99,,,0.00,Acu-Link.com,2013-02-03 08:07:00,
2013-02-03 03:22:00,20.1,19.9,29.72,WNW,292,3.2,-999.0,99,-99.99,,,0.00,Acu-Link.com,2013-02-03 08:22:00,
2013-02-03 03:37:00,20.1,19.9,29.71,West,270,2.7,-999.0,99,-99.99,,,0.00,Acu-Link.com,2013-02-03 08:37:00,
2013-02-03 03:53:00,20.1,19.9,29.70,West,270,2.7,-999.0,99,-99.99,,,0.00,Acu-Link.com,2013-02-03 08:53:00,
2013-02-03 04:08:00,20.1,19.9,29.70,WSW,247,5.3,-999.0,99,-99.99,,,0.00,Acu-Link.com,2013-02-03 09:08:00,
2013-02-03 04:23:00,20.3,20.1,29.70,WNW,292,3.2,-999.0,99,-99.99,,,0.00,Acu-Link.com,2013-02-03 09:23:00,
2013-02-03 04:38:00,20.3,19.8,29.70,West,270,5.3,-999.0,98,-99.99,,,0.00,Acu-Link.com,2013-02-03 09:38:00,
2013-02-03 04:54:00,20.1,19.6,29.69,West,270,4.7,-999.0,98,-99.99,,,0.00,Acu-Link.com,2013-02-03 09:54:00,
2013-02-03 05:09:00,19.9,19.4,29.69,West,270,3.2,-999.0,98,-99.99,,,0.00,Acu-Link.com,2013-02-03 10:09:00,
2013-02-03 05:24:00,19.9,19.4,29.68,West,270,4.2,-999.0,98,-99.99,,,0.00,Acu-Link.com,2013-02-03 10:24:00,
2013-02-03 05:39:00,19.8,19.6,29.68,West,270,2.2,-999.0,99,-99.99,,,0.00,Acu-Link.com,2013-02-03 10:39:00,
2013-02-03 05:54:00,19.8,19.3,29.69,West,270,6.3,-999.0,98,-99.99,,,0.00,Acu-Link.com,2013-02-03 10:54:00,
2013-02-03 06:10:00,19.8,19.3,29.68,West,270,3.7,-999.0,98,-99.99,,,0.00,Acu-Link.com,2013-02-03 11:10:00,
2013-02-03 06:25:00,19.6,19.1,29.69,SW,225,3.2,-999.0,98,-99.99,,,0.00,Acu-Link.com,2013-02-03 11:25:00,
2013-02-03 06:40:00,19.6,19.1,29.69,West,270,4.7,-999.0,98,-99.99,,,0.00,Acu-Link.com,2013-02-03 11:40:00,
2013-02-03 06:55:00,19.6,19.4,29.69,West,270,6.3,-999.0,99,-99.99,,,0.00,Acu-Link.com,2013-02-03 11:55:00,
2013-02-03 07:10:00,19.4,18.9,29.70,SSW,202,4.2,-999.0,98,-99.99,,,0.00,Acu-Link.com,2013-02-03 12:10:00,
2013-02-03 07:26:00,19.4,18.9,29.69,West,270,3.7,-999.0,98,-99.99,,,0.00,Acu-Link.com,2013-02-03 12:26:00,
2013-02-03 07:41:00,19.4,18.9,29.69,West,270,3.2,-999.0,98,-99.99,,,0.00,Acu-Link.com,2013-02-03 12:41:00,
2013-02-03 07:56:00,19.4,18.9,29.69,West,270,4.2,-999.0,98,-99.99,,,0.00,Acu-Link.com,2013-02-03 12:56:00,
2013-02-03 08:11:00,19.4,18.9,29.70,West,270,3.2,-999.0,98,-99.99,,,0.00,Acu-Link.com,2013-02-03 13:11:00,
2013-02-03 08:26:00,19.6,18.2,29.69,West,270,8.3,-999.0,94,-99.99,,,0.00,Acu-Link.com,2013-02-03 13:26:00,
2013-02-03 08:42:00,19.6,18.6,29.69,West,270,4.7,-999.0,96,-99.99,,,0.00,Acu-Link.com,2013-02-03 13:42:00,
2013-02-03 08:57:00,21.0,19.3,29.69,West,270,3.7,-999.0,93,-99.99,,,0.00,Acu-Link.com,2013-02-03 13:57:00,
2013-02-03 09:12:00,21.4,19.7,29.69,WSW,247,4.7,-999.0,93,-99.99,,,0.00,Acu-Link.com,2013-02-03 14:12:00,
2013-02-03 09:27:00,20.7,19.3,29.68,West,270,3.2,-999.0,94,-99.99,,,0.00,Acu-Link.com,2013-02-03 14:27:00,
2013-02-03 09:43:00,21.2,19.2,29.68,West,270,2.7,-999.0,92,-99.99,,,0.00,Acu-Link.com,2013-02-03 14:43:00,
2013-02-03 09:58:00,21.6,19.6,29.68,WSW,247,3.2,-999.0,92,-99.99,,,0.00,Acu-Link.com,2013-02-03 14:58:00,
2013-02-03 10:13:00,23.5,20.7,29.68,WSW,247,4.7,-999.0,89,-99.99,,,0.00,Acu-Link.com,2013-02-03 15:13:00,
2013-02-03 10:28:00,23.4,20.4,29.68,WSW,247,2.7,-999.0,88,-99.99,,,0.00,Acu-Link.com,2013-02-03 15:28:00,
2013-02-03 10:43:00,24.8,21.8,29.67,SSW,202,4.2,-999.0,88,-99.99,,,0.00,Acu-Link.com,2013-02-03 15:43:00,
2013-02-03 10:59:00,25.0,20.3,29.66,WSW,247,4.7,-999.0,82,-99.99,,,0.00,Acu-Link.com,2013-02-03 15:59:00,
2013-02-03 11:14:00,24.6,20.5,29.66,West,270,4.7,-999.0,84,-99.99,,,0.00,Acu-Link.com,2013-02-03 16:14:00,
2013-02-03 11:29:00,25.9,20.9,29.65,West,270,6.3,-999.0,81,-99.99,,,0.00,Acu-Link.com,2013-02-03 16:29:00,
2013-02-03 11:44:00,25.3,20.9,29.65,West,270,2.7,-999.0,83,-99.99,,,0.00,Acu-Link.com,2013-02-03 16:44:00,
2013-02-03 12:00:00,26.2,21.5,29.65,West,270,2.7,-999.0,82,-99.99,,,0.00,Acu-Link.com,2013-02-03 17:00:00,
2013-02-03 12:15:00,27.1,20.9,29.64,SSW,202,5.3,-999.0,77,-99.99,,,0.00,Acu-Link.com,2013-02-03 17:15:00,
2013-02-03 12:30:00,26.8,20.6,29.64,West,270,9.9,-999.0,77,-99.99,,,0.00,Acu-Link.com,2013-02-03 17:30:00,
2013-02-03 12:45:00,25.9,20.0,29.63,West,270,8.9,-999.0,78,-99.99,,,0.00,Acu-Link.com,2013-02-03 17:45:00,
2013-02-03 13:01:00,25.5,20.5,29.63,WNW,292,8.9,-999.0,81,-99.99,,,0.00,Acu-Link.com,2013-02-03 18:01:00,
2013-02-03 13:16:00,25.3,20.9,29.63,West,270,6.3,-999.0,83,-99.99,,,0.00,Acu-Link.com,2013-02-03 18:16:00,
2013-02-03 13:32:00,26.4,22.5,29.62,West,270,7.3,-999.0,85,-99.99,,,0.00,Acu-Link.com,2013-02-03 18:32:00,
2013-02-03 13:47:00,27.0,22.5,29.61,SE,135,3.7,-999.0,83,-99.99,,,0.00,Acu-Link.com,2013-02-03 18:47:00,
2013-02-03 14:02:00,27.3,22.8,29.61,West,270,8.3,-999.0,83,-99.99,,,0.00,Acu-Link.com,2013-02-03 19:02:00,
2013-02-03 14:18:00,25.9,21.5,29.62,West,270,9.4,-999.0,83,-99.99,,,0.00,Acu-Link.com,2013-02-03 19:18:00,
2013-02-03 14:33:00,25.0,21.1,29.61,WNW,292,10.4,-999.0,85,-99.99,,,0.00,Acu-Link.com,2013-02-03 19:33:00,
2013-02-03 14:48:00,24.8,22.3,29.62,West,270,5.8,-999.0,90,-99.99,,,0.00,Acu-Link.com,2013-02-03 19:48:00,
2013-02-03 15:03:00,23.7,21.5,29.62,NNW,337,5.8,-999.0,91,-99.99,,,0.00,Acu-Link.com,2013-02-03 20:03:00,
2013-02-03 15:19:00,23.4,21.7,29.62,East,90,2.7,-999.0,93,-99.99,,,0.00,Acu-Link.com,2013-02-03 20:19:00,
2013-02-03 15:34:00,23.2,21.7,29.62,SSE,157,4.2,-999.0,94,-99.99,,,0.00,Acu-Link.com,2013-02-03 20:34:00,
2013-02-03 15:49:00,23.7,22.0,29.63,WSW,247,5.8,-999.0,93,-99.99,,,0.00,Acu-Link.com,2013-02-03 20:49:00,
2013-02-03 16:04:00,23.4,22.2,29.63,WSW,247,7.8,-999.0,95,-99.99,,,0.00,Acu-Link.com,2013-02-03 21:04:00,
2013-02-03 16:20:00,22.8,21.1,29.64,WSW,247,5.8,-999.0,93,-99.99,,,0.00,Acu-Link.com,2013-02-03 21:20:00,
2013-02-03 16:35:00,22.6,20.6,29.63,West,270,5.8,-999.0,92,-99.99,,,0.00,Acu-Link.com,2013-02-03 21:35:00,
2013-02-03 16:50:00,21.9,21.2,29.63,West,270,4.2,-999.0,97,-99.99,,,0.00,Acu-Link.com,2013-02-03 21:50:00,
2013-02-03 17:05:00,20.8,20.3,29.64,WNW,292,8.9,-999.0,98,-99.99,,,0.00,Acu-Link.com,2013-02-03 22:05:00,
2013-02-03 17:20:00,20.5,20.0,29.65,West,270,6.3,-999.0,98,-99.99,,,0.00,Acu-Link.com,2013-02-03 22:20:00,
2013-02-03 17:35:00,20.5,20.0,29.65,NNW,337,6.8,-999.0,98,-99.99,,,0.00,Acu-Link.com,2013-02-03 22:35:00,
2013-02-03 17:51:00,20.3,20.1,29.66,WSW,247,6.8,-999.0,99,-99.99,,,0.00,Acu-Link.com,2013-02-03 22:51:00,
2013-02-03 18:06:00,19.0,18.3,29.67,WNW,292,9.4,-999.0,97,-99.99,,,0.00,Acu-Link.com,2013-02-03 23:06:00,
2013-02-03 18:21:00,18.7,18.0,29.68,West,270,8.9,-999.0,97,-99.99,,,0.00,Acu-Link.com,2013-02-03 23:21:00,
2013-02-03 18:36:00,18.5,18.0,29.70,West,270,4.7,-999.0,98,-99.99,,,0.00,Acu-Link.com,2013-02-03 23:36:00,
2013-02-03 18:51:00,18.3,17.8,29.70,West,270,5.8,-999.0,98,-99.99,,,0.00,Acu-Link.com,2013-02-03 23:51:00,
2013-02-03 19:07:00,18.1,17.4,29.70,West,270,11.4,-999.0,97,-99.99,,,0.00,Acu-Link.com,2013-02-04 00:07:00,
2013-02-03 19:22:00,17.8,17.3,29.70,West,270,10.4,-999.0,98,-99.99,,,0.00,Acu-Link.com,2013-02-04 00:22:00,
2013-02-03 19:37:00,17.6,16.7,29.72,West,270,9.9,-999.0,96,-99.99,,,0.00,Acu-Link.com,2013-02-04 00:37:00,
2013-02-03 19:52:00,17.1,15.9,29.73,WSW,247,7.8,-999.0,95,-99.99,,,0.00,Acu-Link.com,2013-02-04 00:52:00,
2013-02-03 20:07:00,16.9,15.7,29.73,WNW,292,7.8,-999.0,95,-99.99,,,0.00,Acu-Link.com,2013-02-04 01:07:00,
2013-02-03 20:23:00,16.7,15.3,29.73,WSW,247,13.5,-999.0,94,-99.99,,,0.00,Acu-Link.com,2013-02-04 01:23:00,
2013-02-03 20:38:00,16.3,15.1,29.73,West,270,11.9,-999.0,95,-99.99,,,0.00,Acu-Link.com,2013-02-04 01:38:00,
2013-02-03 20:53:00,16.2,14.8,29.74,SSW,202,13.5,-999.0,94,-99.99,,,0.00,Acu-Link.com,2013-02-04 01:53:00,
2013-02-03 21:08:00,15.8,13.9,29.74,NW,315,7.3,-999.0,92,-99.99,,,0.00,Acu-Link.com,2013-02-04 02:08:00,
2013-02-03 21:23:00,15.6,14.2,29.75,WSW,247,7.3,-999.0,94,-99.99,,,0.00,Acu-Link.com,2013-02-04 02:23:00,
2013-02-03 21:39:00,15.6,13.9,29.75,WSW,247,9.4,-999.0,93,-99.99,,,0.00,Acu-Link.com,2013-02-04 02:39:00,
2013-02-03 21:54:00,15.4,14.0,29.76,West,270,10.4,-999.0,94,-99.99,,,0.00,Acu-Link.com,2013-02-04 02:54:00,
2013-02-03 22:09:00,15.1,13.7,29.77,West,270,7.3,-999.0,94,-99.99,,,0.00,Acu-Link.com,2013-02-04 03:09:00,
2013-02-03 22:27:00,15.1,13.9,29.76,WSW,247,5.3,-999.0,95,-99.99,,,0.00,Acu-Link.com,2013-02-04 03:27:00,
2013-02-03 22:42:00,15.1,13.9,29.76,WNW,292,7.8,-999.0,95,-99.99,,,0.00,Acu-Link.com,2013-02-04 03:42:00,
2013-02-03 22:58:00,14.2,12.1,29.77,WSW,247,16.6,-999.0,91,-99.99,,,0.00,Acu-Link.com,2013-02-04 03:58:00,
2013-02-03 23:13:00,13.8,11.7,29.78,West,270,15.0,-999.0,91,-99.99,,,0.00,Acu-Link.com,2013-02-04 04:13:00,
2013-02-03 23:28:00,13.5,11.1,29.78,WSW,247,8.9,-999.0,90,-99.99,,,0.00,Acu-Link.com,2013-02-04 04:28:00,
2013-02-03 23:43:00,12.9,11.3,29.79,West,270,12.5,-999.0,93,-99.99,,,0.00,Acu-Link.com,2013-02-04 04:43:00,
2013-02-03 23:58:00,12.9,11.3,29.79,West,270,12.5,-999.0,93,-99.99,,,0.00,Acu-Link.com,2013-02-04 04:58:00,